createdAt,value
2023-08-10T00:01:08.520Z,101598.50
2023-08-10T00:03:34.915Z,101607.97
2023-08-10T00:06:01.329Z,101604.66
2023-08-10T00:08:27.618Z,101600.38
2023-08-10T00:10:53.895Z,101604.00
2023-08-10T00:13:20.187Z,101605.88
2023-08-10T00:15:46.478Z,101606.63
2023-08-10T00:18:12.804Z,101613.72
2023-08-10T00:20:39.108Z,101610.81
2023-08-10T00:23:07.333Z,101607.19
2023-08-10T00:25:34.020Z,101602.00
2023-08-10T00:28:00.378Z,101605.69
2023-08-10T00:30:26.744Z,101608.16
2023-08-10T00:32:53.196Z,101610.03
2023-08-10T00:35:19.505Z,101607.19
2023-08-10T00:37:45.804Z,101606.63
2023-08-10T00:40:12.070Z,101603.22
2023-08-10T00:42:38.324Z,101606.03
2023-08-10T00:45:04.694Z,101606.50
2023-08-10T00:47:31.038Z,101612.03
2023-08-10T00:49:57.421Z,101606.75
2023-08-10T00:52:23.682Z,101601.75
2023-08-10T00:54:49.980Z,101609.06
2023-08-10T00:57:16.321Z,101605.50
2023-08-10T00:59:42.634Z,101602.59
2023-08-10T01:02:09.098Z,101593.47
2023-08-10T01:04:35.589Z,101591.31
2023-08-10T01:07:01.897Z,101592.03
2023-08-10T01:09:28.128Z,101589.53
2023-08-10T01:11:54.381Z,101593.19
2023-08-10T01:14:20.625Z,101582.81
2023-08-10T01:16:46.980Z,101584.50
2023-08-10T01:19:13.360Z,101590.34
2023-08-10T01:21:39.660Z,101597.78
2023-08-10T01:24:05.959Z,101598.91
2023-08-10T01:26:32.309Z,101604.69
2023-08-10T01:28:58.689Z,101604.91
2023-08-10T01:31:25.028Z,101598.78
2023-08-10T01:33:51.352Z,101592.72
2023-08-10T01:36:17.705Z,101593.06
2023-08-10T01:38:43.966Z,101597.50
2023-08-10T01:41:10.238Z,101601.03
2023-08-10T01:43:36.536Z,101600.22
2023-08-10T01:46:02.827Z,101605.56
2023-08-10T01:48:29.110Z,101604.72
2023-08-10T01:50:55.404Z,101607.41
2023-08-10T01:53:21.742Z,101613.41
2023-08-10T01:55:48.062Z,101606.97
2023-08-10T01:58:14.375Z,101609.09
2023-08-10T02:00:40.659Z,101614.59
2023-08-10T02:03:06.952Z,101613.94
2023-08-10T02:05:33.233Z,101608.75
2023-08-10T02:07:59.519Z,101606.28
2023-08-10T02:10:25.818Z,101603.72
2023-08-10T02:12:52.121Z,101598.38
2023-08-10T02:15:18.367Z,101595.78
2023-08-10T02:17:44.713Z,101551.78
2023-08-10T02:20:10.975Z,101547.38
2023-08-10T02:22:37.374Z,101554.59
2023-08-10T02:25:03.696Z,101551.78
2023-08-10T02:27:29.940Z,101544.56
2023-08-10T02:29:56.223Z,101541.91
2023-08-10T02:32:22.651Z,101540.91
2023-08-10T02:34:48.971Z,101546.28
2023-08-10T02:37:15.216Z,101542.78
2023-08-10T02:39:41.554Z,101547.28
2023-08-10T02:42:07.875Z,101543.00
2023-08-10T02:44:34.177Z,101541.25
2023-08-10T02:47:00.561Z,101544.88
2023-08-10T02:49:26.817Z,101549.47
2023-08-10T02:51:53.104Z,101547.91
2023-08-10T02:54:19.442Z,101532.50
2023-08-10T02:56:45.769Z,101541.59
2023-08-10T02:59:12.066Z,101545.34
2023-08-10T03:01:38.343Z,101551.72
2023-08-10T03:04:04.643Z,101550.94
2023-08-10T03:06:30.933Z,101555.72
2023-08-10T03:08:57.194Z,101552.31
2023-08-10T03:11:23.564Z,101555.78
2023-08-10T03:13:49.963Z,101562.78
2023-08-10T03:16:16.262Z,101562.09
2023-08-10T03:18:42.541Z,101555.72
2023-08-10T03:21:08.888Z,101554.72
2023-08-10T03:23:35.239Z,101570.53
2023-08-10T03:26:01.494Z,101571.25
2023-08-10T03:28:27.789Z,101564.03
2023-08-10T03:30:54.245Z,101576.53
2023-08-10T03:33:20.555Z,101563.34
2023-08-10T03:35:46.880Z,101573.16
2023-08-10T03:38:13.293Z,101562.69
2023-08-10T03:40:39.585Z,101558.28
2023-08-10T03:43:05.927Z,101558.28
2023-08-10T03:45:32.208Z,101559.84
2023-08-10T03:47:58.614Z,101562.09
2023-08-10T03:50:24.924Z,101563.66
2023-08-10T03:52:51.292Z,101570.28
2023-08-10T03:55:17.558Z,101575.47
2023-08-10T03:57:43.829Z,101580.88
2023-08-10T04:00:10.091Z,101583.88
2023-08-10T04:02:36.355Z,101589.41
2023-08-10T04:05:02.657Z,101590.72
2023-08-10T04:07:28.945Z,101595.63
2023-08-10T04:09:55.271Z,101597.88
2023-08-10T04:12:21.571Z,101596.31
2023-08-10T04:14:47.868Z,101599.41
2023-08-10T04:17:14.111Z,101605.00
2023-08-10T04:19:40.366Z,101605.19
2023-08-10T04:22:06.825Z,101605.47
2023-08-10T04:24:33.239Z,101609.38
2023-08-10T04:26:59.609Z,101616.78
2023-08-10T04:29:25.894Z,101613.63
2023-08-10T04:31:52.190Z,101619.09
2023-08-10T04:34:18.507Z,101616.59
2023-08-10T04:36:44.825Z,101610.41
2023-08-10T04:39:11.113Z,101606.84
2023-08-10T04:41:37.372Z,101601.59
2023-08-10T04:44:03.619Z,101608.50
2023-08-10T04:46:29.933Z,101607.47
2023-08-10T04:48:56.249Z,101606.47
2023-08-10T04:51:22.605Z,101602.81
2023-08-10T04:53:48.931Z,101600.84
2023-08-10T04:56:17.482Z,101604.97
2023-08-10T04:58:44.843Z,101614.44
2023-08-10T05:01:11.171Z,101618.56
2023-08-10T05:03:37.531Z,101619.75
2023-08-10T05:06:03.840Z,101624.69
2023-08-10T05:08:30.167Z,101626.94
2023-08-10T05:10:56.519Z,101630.06
2023-08-10T05:13:22.811Z,101634.91
2023-08-10T05:15:49.125Z,101636.31
2023-08-10T05:18:15.437Z,101637.44
2023-08-10T05:20:41.780Z,101638.50
2023-08-10T05:23:09.753Z,101635.22
2023-08-10T05:25:36.081Z,101628.69
2023-08-10T05:28:02.590Z,101635.41
2023-08-10T05:30:29.018Z,101639.41
2023-08-10T05:32:55.433Z,101633.81
2023-08-10T05:35:22.238Z,101640.59
2023-08-10T05:37:48.904Z,101653.31
2023-08-10T05:40:15.334Z,101650.50
2023-08-10T05:42:41.744Z,101652.59
2023-08-10T05:45:08.434Z,101651.38
2023-08-10T05:47:35.190Z,101654.38
2023-08-10T05:50:02.061Z,101656.47
2023-08-10T05:52:28.538Z,101654.84
2023-08-10T05:54:55.295Z,101649.81
2023-08-10T05:57:21.679Z,101654.63
2023-08-10T05:59:48.093Z,101663.00
2023-08-10T06:02:15.105Z,101660.78
2023-08-10T06:04:41.658Z,101664.66
2023-08-10T06:07:08.091Z,101674.88
2023-08-10T06:09:34.573Z,101680.69
2023-08-10T06:12:01.647Z,101694.25
2023-08-10T06:14:28.463Z,101707.13
2023-08-10T06:16:54.910Z,101707.56
2023-08-10T06:19:21.254Z,101715.56
2023-08-10T06:21:47.664Z,101723.56
2023-08-10T06:24:14.017Z,101730.22
2023-08-10T06:26:40.763Z,101729.38
2023-08-10T06:29:07.282Z,101731.63
2023-08-10T06:31:34.088Z,101730.34
2023-08-10T06:34:00.513Z,101726.97
2023-08-10T06:36:26.905Z,101729.91
2023-08-10T06:38:53.363Z,101724.91
2023-08-10T06:41:19.724Z,101723.41
2023-08-10T06:43:46.035Z,101722.00
2023-08-10T06:46:12.335Z,101724.03
2023-08-10T06:48:38.767Z,101713.81
2023-08-10T06:51:05.602Z,101713.59
2023-08-10T06:53:31.952Z,101719.19
2023-08-10T06:55:59.155Z,101714.81
2023-08-10T07:00:55.315Z,101713.75
2023-08-10T07:03:22.266Z,101705.47
2023-08-10T07:05:49.641Z,101703.75
2023-08-10T07:08:16.657Z,101695.97
2023-08-10T07:10:43.433Z,101688.16
2023-08-10T07:13:09.762Z,101696.16
2023-08-10T07:15:36.208Z,101697.66
2023-08-10T07:18:05.160Z,101700.09
2023-08-10T07:20:32.995Z,101703.00
2023-08-10T07:22:59.965Z,101699.63
2023-08-10T07:25:26.292Z,101701.50
2023-08-10T07:27:52.692Z,101700.66
2023-08-10T07:30:19.164Z,101703.53
2023-08-10T07:32:45.613Z,101703.00
2023-08-10T07:35:12.018Z,101700.00
2023-08-10T07:37:38.451Z,101712.03
2023-08-10T07:40:04.746Z,101712.53
2023-08-10T07:42:31.044Z,101709.03
2023-08-10T07:44:57.484Z,101707.41
2023-08-10T07:47:23.788Z,101716.09
2023-08-10T07:49:50.179Z,101721.31
2023-08-10T07:52:16.531Z,101718.94
2023-08-10T07:54:42.928Z,101729.38
2023-08-10T07:57:09.196Z,101719.13
2023-08-10T07:59:35.508Z,101712.06
2023-08-10T08:02:01.925Z,101716.13
2023-08-10T08:04:28.489Z,101723.31
2023-08-10T08:06:54.990Z,101730.94
2023-08-10T08:09:21.624Z,101726.03
2023-08-10T08:11:48.019Z,101734.22
2023-08-10T08:14:14.401Z,101734.88
2023-08-10T08:16:40.816Z,101733.63
2023-08-10T08:19:07.202Z,101740.19
2023-08-10T08:21:33.572Z,101745.41
2023-08-10T08:23:59.927Z,101743.63
2023-08-10T08:26:26.612Z,101745.63
2023-08-10T08:28:53.073Z,101731.25
2023-08-10T08:31:19.467Z,101735.50
2023-08-10T08:33:45.904Z,101734.06
2023-08-10T08:36:12.221Z,101732.75
2023-08-10T08:38:38.842Z,101735.75
2023-08-10T08:41:05.288Z,101733.69
2023-08-10T08:43:31.616Z,101733.94
2023-08-10T08:45:57.975Z,101744.00
2023-08-10T08:48:24.771Z,101743.81
2023-08-10T08:50:51.096Z,101745.03
2023-08-10T08:53:17.475Z,101742.22
2023-08-10T08:55:43.833Z,101748.28
2023-08-10T08:58:10.242Z,101746.19
2023-08-10T09:00:36.679Z,101753.63
2023-08-10T09:03:03.101Z,101759.78
2023-08-10T09:05:29.456Z,101772.44
2023-08-10T09:07:56.222Z,101754.19
2023-08-10T09:10:22.808Z,101758.41
2023-08-10T09:12:49.713Z,101754.31
2023-08-10T09:15:16.533Z,101765.22
2023-08-10T09:17:43.039Z,101758.84
2023-08-10T09:20:10.395Z,101762.47
2023-08-10T09:22:36.809Z,101758.91
2023-08-10T09:25:03.721Z,101759.81
2023-08-10T09:27:30.203Z,101749.34
2023-08-10T09:29:56.934Z,101752.59
2023-08-10T09:32:23.854Z,101744.28
2023-08-10T09:34:50.295Z,101737.09
2023-08-10T09:37:16.598Z,101737.19
2023-08-10T09:39:42.907Z,101744.28
2023-08-10T09:42:09.225Z,101747.22
2023-08-10T09:44:35.489Z,101748.50
2023-08-10T09:47:03.096Z,101744.69
2023-08-10T09:49:29.697Z,101741.19
2023-08-10T09:51:56.033Z,101746.56
2023-08-10T09:54:22.295Z,101752.50
2023-08-10T09:56:48.606Z,101757.56
2023-08-10T09:59:14.961Z,101762.78
2023-08-10T10:01:41.312Z,101753.38
2023-08-10T10:04:07.714Z,101754.03
2023-08-10T10:06:34.130Z,101754.03
2023-08-10T10:09:00.496Z,101754.31
2023-08-10T10:11:26.941Z,101759.56
2023-08-10T10:13:53.261Z,101751.56
2023-08-10T10:16:19.700Z,101762.25
2023-08-10T10:18:46.123Z,101764.69
2023-08-10T10:21:12.480Z,101768.44
2023-08-10T10:23:38.829Z,101763.47
2023-08-10T10:26:05.171Z,101765.31
2023-08-10T10:28:31.447Z,101759.34
2023-08-10T10:30:57.798Z,101755.88
2023-08-10T10:33:24.167Z,101751.44
2023-08-10T10:35:50.436Z,101748.16
2023-08-10T10:38:16.783Z,101744.84
2023-08-10T10:40:43.174Z,101748.50
2023-08-10T10:43:09.439Z,101746.56
2023-08-10T10:45:35.763Z,101739.91
2023-08-10T10:48:02.186Z,101738.28
2023-08-10T10:50:28.540Z,101733.91
2023-08-10T10:52:54.886Z,101730.47
2023-08-10T10:55:21.253Z,101728.38
2023-08-10T10:57:47.612Z,101726.97
2023-08-10T11:00:14.247Z,101720.81
2023-08-10T11:02:40.629Z,101720.88
2023-08-10T11:05:07.336Z,101724.56
2023-08-10T11:07:34.304Z,101723.88
2023-08-10T11:10:01.041Z,101724.94
2023-08-10T11:12:27.822Z,101719.22
2023-08-10T11:14:54.194Z,101728.34
2023-08-10T11:17:22.271Z,101730.88
2023-08-10T11:19:48.784Z,101734.41
2023-08-10T11:22:15.138Z,101735.75
2023-08-10T11:24:41.504Z,101725.13
2023-08-10T11:27:07.900Z,101728.94
2023-08-10T11:29:34.251Z,101728.91
2023-08-10T11:32:02.820Z,101726.59
2023-08-10T11:34:29.507Z,101727.47
2023-08-10T11:36:55.955Z,101713.81
2023-08-10T11:39:22.336Z,101715.84
2023-08-10T11:41:48.705Z,101704.38
2023-08-10T11:44:15.068Z,101698.63
2023-08-10T11:46:41.470Z,101697.13
2023-08-10T11:49:07.889Z,101699.44
2023-08-10T11:51:34.235Z,101706.22
2023-08-10T11:54:00.507Z,101704.50
2023-08-10T11:56:26.843Z,101704.16
2023-08-10T11:58:53.194Z,101708.25
2023-08-10T12:01:19.644Z,101716.84
2023-08-10T12:03:46.018Z,101704.13
2023-08-10T12:06:12.489Z,101710.19
2023-08-10T12:08:38.894Z,101709.63
2023-08-10T12:11:06.396Z,101710.53
2023-08-10T12:13:32.892Z,101708.13
2023-08-10T12:15:59.181Z,101706.78
2023-08-10T12:18:25.663Z,101700.97
2023-08-10T12:20:52.056Z,101706.38
2023-08-10T12:23:18.387Z,101702.50
2023-08-10T12:25:44.677Z,101686.81
2023-08-10T12:28:10.970Z,101701.44
2023-08-10T12:30:37.222Z,101696.38
2023-08-10T12:33:03.585Z,101696.09
2023-08-10T12:35:29.961Z,101699.34
2023-08-10T12:37:56.420Z,101696.63
2023-08-10T12:40:22.713Z,101687.66
2023-08-10T12:42:49.086Z,101700.31
2023-08-10T12:45:15.336Z,101699.63
2023-08-10T12:47:41.671Z,101701.00
2023-08-10T12:50:07.976Z,101695.78
2023-08-10T12:52:34.301Z,101694.59
2023-08-10T12:55:00.816Z,101685.81
2023-08-10T12:57:27.223Z,101691.72
2023-08-10T12:59:53.550Z,101683.44
2023-08-10T13:02:31.665Z,101693.25
2023-08-10T13:05:00.100Z,101685.81
2023-08-10T13:07:26.475Z,101684.97
2023-08-10T13:09:52.836Z,101688.16
2023-08-10T13:12:19.242Z,101704.09
2023-08-10T13:14:45.689Z,101696.31
2023-08-10T13:17:12.159Z,101704.31
2023-08-10T13:19:38.523Z,101696.34
2023-08-10T13:22:05.577Z,101703.75
2023-08-10T13:24:32.170Z,101707.03
2023-08-10T13:26:58.457Z,101694.69
2023-08-10T13:29:25.097Z,101697.69
2023-08-10T13:31:51.616Z,101696.84
2023-08-10T13:34:18.378Z,101694.69
2023-08-10T13:36:44.872Z,101697.34
2023-08-10T13:39:11.209Z,101699.06
2023-08-10T13:41:37.524Z,101693.66
2023-08-10T13:44:04.313Z,101701.84
2023-08-10T13:46:30.636Z,101691.41
2023-08-10T13:48:56.894Z,101691.47
2023-08-10T13:51:23.218Z,101698.06
2023-08-10T13:53:49.593Z,101691.09
2023-08-10T13:56:15.943Z,101701.59
2023-08-10T13:58:42.311Z,101696.38
2023-08-10T14:01:08.750Z,101693.25
2023-08-10T14:03:35.202Z,101695.53
2023-08-10T14:06:01.729Z,101702.69
2023-08-10T14:08:28.062Z,101708.50
2023-08-10T14:10:54.367Z,101705.66
2023-08-10T14:13:21.241Z,101716.03
2023-08-10T14:15:48.167Z,101708.06
2023-08-10T14:18:14.569Z,101719.53
2023-08-10T14:20:41.410Z,101719.00
2023-08-10T14:23:08.430Z,101727.44
2023-08-10T14:25:35.390Z,101716.00
2023-08-10T14:28:02.190Z,101728.53
2023-08-10T14:30:29.501Z,101723.69
2023-08-10T14:32:56.245Z,101712.38
2023-08-10T14:35:22.806Z,101717.34
2023-08-10T14:37:49.850Z,101709.78
2023-08-10T14:40:16.734Z,101710.81
2023-08-10T14:42:43.645Z,101720.72
2023-08-10T14:45:10.850Z,101718.81
2023-08-10T14:47:37.970Z,101725.75
2023-08-10T14:50:04.835Z,101725.03
2023-08-10T14:52:32.603Z,101730.50
2023-08-10T14:55:08.369Z,101731.72
2023-08-10T14:57:43.374Z,101728.84
2023-08-10T15:00:10.242Z,101730.88
2023-08-10T15:02:37.120Z,101734.28
2023-08-10T15:05:03.807Z,101723.25
2023-08-10T15:07:31.182Z,101728.38
2023-08-10T15:09:57.579Z,101728.66
2023-08-10T15:12:23.899Z,101720.41
2023-08-10T15:14:50.219Z,101726.94
2023-08-10T15:17:16.557Z,101735.09
2023-08-10T15:19:43.275Z,101726.44
2023-08-10T15:22:09.802Z,101740.66
2023-08-10T15:24:36.715Z,101734.22
2023-08-10T15:27:03.621Z,101744.56
2023-08-10T15:29:30.660Z,101744.88
2023-08-10T15:31:57.505Z,101742.00
2023-08-10T15:34:24.219Z,101740.13
2023-08-10T15:36:51.096Z,101730.69
2023-08-10T15:39:18.369Z,101740.97
2023-08-10T15:41:46.106Z,101749.94
2023-08-10T15:44:13.778Z,101739.47
2023-08-10T15:46:40.732Z,101737.97
2023-08-10T15:49:07.574Z,101740.97
2023-08-10T15:51:34.534Z,101743.38
2023-08-10T15:54:01.409Z,101749.25
2023-08-10T15:56:28.094Z,101749.00
2023-08-10T15:58:54.720Z,101748.13
2023-08-10T16:01:22.181Z,101740.00
2023-08-10T16:03:48.871Z,101736.53
2023-08-10T16:06:15.764Z,101744.94
2023-08-10T16:08:42.813Z,101749.03
2023-08-10T16:11:09.864Z,101752.41
2023-08-10T16:13:36.804Z,101748.47
2023-08-10T16:16:04.138Z,101740.31
2023-08-10T16:18:31.062Z,101746.97
2023-08-10T16:20:57.594Z,101748.41
2023-08-10T16:23:24.402Z,101752.34
2023-08-10T16:25:52.151Z,101743.72
2023-08-10T16:28:19.249Z,101741.22
2023-08-10T16:30:45.593Z,101739.13
2023-08-10T16:33:12.376Z,101737.13
2023-08-10T16:35:39.072Z,101747.56
2023-08-10T16:38:05.858Z,101748.47
2023-08-10T16:40:32.800Z,101744.72
2023-08-10T16:42:59.460Z,101743.50
2023-08-10T16:45:26.340Z,101732.59
2023-08-10T16:47:52.857Z,101738.28
2023-08-10T16:50:19.202Z,101741.34
2023-08-10T16:52:45.549Z,101745.03
2023-08-10T16:55:11.892Z,101740.63
2023-08-10T16:57:38.299Z,101735.38
2023-08-10T17:00:04.644Z,101741.84
2023-08-10T17:02:31.111Z,101741.13
2023-08-10T17:04:57.610Z,101744.47
2023-08-10T17:07:23.934Z,101744.06
2023-08-10T17:09:50.282Z,101747.75
2023-08-10T17:12:16.704Z,101744.97
2023-08-10T17:14:43.004Z,101739.19
2023-08-10T17:17:09.318Z,101730.59
2023-08-10T17:19:35.705Z,101735.03
2023-08-10T17:22:02.117Z,101729.59
2023-08-10T17:24:28.449Z,101730.75
2023-08-10T17:26:54.785Z,101742.75
2023-08-10T17:29:21.894Z,101734.06
2023-08-10T17:31:48.347Z,101734.03
2023-08-10T17:34:14.702Z,101728.22
2023-08-10T17:36:41.051Z,101728.16
2023-08-10T17:39:07.370Z,101721.91
2023-08-10T17:41:33.742Z,101723.41
2023-08-10T17:44:00.052Z,101713.75
2023-08-10T17:46:26.347Z,101716.91
2023-08-10T17:48:52.639Z,101720.66
2023-08-10T17:51:18.870Z,101713.63
2023-08-10T17:53:45.290Z,101719.28
2023-08-10T17:56:11.554Z,101719.72
2023-08-10T17:58:37.921Z,101718.19
2023-08-10T18:01:04.245Z,101719.28
2023-08-10T18:03:30.639Z,101720.25
2023-08-10T18:05:56.977Z,101715.69
2023-08-10T18:08:23.325Z,101722.09
2023-08-10T18:10:51.662Z,101738.00
2023-08-10T18:13:18.233Z,101739.97
2023-08-10T18:15:44.579Z,101752.69
2023-08-10T18:18:10.886Z,101744.47
2023-08-10T18:20:37.214Z,101751.19
2023-08-10T18:23:03.538Z,101752.38
2023-08-10T18:25:29.871Z,101753.88
2023-08-10T18:27:56.217Z,101761.00
2023-08-10T18:30:22.565Z,101756.88
2023-08-10T18:32:48.924Z,101752.78
2023-08-10T18:35:15.325Z,101746.84
2023-08-10T18:37:41.645Z,101738.13
2023-08-10T18:40:08.031Z,101733.50
2023-08-10T18:42:34.392Z,101740.16
2023-08-10T18:45:00.821Z,101742.56
2023-08-10T18:47:27.234Z,101741.84
2023-08-10T18:49:53.534Z,101740.84
2023-08-10T18:52:19.877Z,101738.66
2023-08-10T18:54:46.210Z,101738.88
2023-08-10T18:57:13.013Z,101739.25
2023-08-10T18:59:39.806Z,101730.13
2023-08-10T19:02:07.073Z,101732.28
2023-08-10T19:04:34.128Z,101729.28
2023-08-10T19:07:00.628Z,101723.59
2023-08-10T19:09:27.280Z,101712.78
2023-08-10T19:11:54.174Z,101717.06
2023-08-10T19:14:21.300Z,101724.81
2023-08-10T19:16:48.332Z,101731.97
2023-08-10T19:19:14.800Z,101726.00
2023-08-10T19:21:41.656Z,101725.75
2023-08-10T19:24:10.632Z,101727.69
2023-08-10T19:26:37.412Z,101724.19
2023-08-10T19:29:03.794Z,101732.28
2023-08-10T19:31:30.580Z,101725.88
2023-08-10T19:33:56.946Z,101725.88
2023-08-10T19:36:23.733Z,101726.00
2023-08-10T19:38:50.631Z,101718.34
2023-08-10T19:41:17.568Z,101717.81
2023-08-10T19:43:44.433Z,101715.25
2023-08-10T19:46:11.437Z,101717.91
2023-08-10T19:48:39.672Z,101719.25
2023-08-10T19:51:06.359Z,101720.69
2023-08-10T19:53:33.341Z,101710.50
2023-08-10T19:56:00.032Z,101708.56
2023-08-10T19:58:26.869Z,101711.84
2023-08-10T20:00:53.792Z,101715.97
2023-08-10T20:03:20.719Z,101723.34
2023-08-10T20:05:47.803Z,101722.09
2023-08-10T20:08:14.900Z,101712.88
2023-08-10T20:10:44.224Z,101725.69
2023-08-10T20:13:11.104Z,101728.94
2023-08-10T20:15:37.967Z,101734.84
2023-08-10T20:18:05.528Z,101738.53
2023-08-10T20:20:32.244Z,101724.13
2023-08-10T20:22:59.134Z,101728.94
2023-08-10T20:25:26.190Z,101728.94
2023-08-10T20:27:53.378Z,101742.69
2023-08-10T20:30:20.252Z,101753.59
2023-08-10T20:32:47.015Z,101754.22
2023-08-10T20:35:14.015Z,101760.44
2023-08-10T20:37:43.860Z,101778.25
2023-08-10T20:40:11.293Z,101776.63
2023-08-10T20:42:38.040Z,101770.81
2023-08-10T20:45:05.039Z,101775.47
2023-08-10T20:47:31.713Z,101773.94
2023-08-10T20:49:58.649Z,101776.84
2023-08-10T20:52:27.216Z,101780.13
2023-08-10T20:54:54.042Z,101780.00
2023-08-10T20:57:20.806Z,101784.50
2023-08-10T20:59:47.935Z,101783.94
2023-08-10T21:02:17.682Z,101781.28
2023-08-10T21:04:44.455Z,101783.53
2023-08-10T21:07:11.229Z,101775.31
2023-08-10T21:09:37.900Z,101787.34
2023-08-10T21:12:04.829Z,101795.53
2023-08-10T21:14:31.848Z,101800.63
2023-08-10T21:16:58.769Z,101802.66
2023-08-10T21:19:25.665Z,101818.25
2023-08-10T21:21:52.790Z,101814.75
2023-08-10T21:24:19.564Z,101824.03
2023-08-10T21:26:46.503Z,101833.50
2023-08-10T21:29:13.478Z,101835.94
2023-08-10T21:31:40.368Z,101837.66
2023-08-10T21:34:07.470Z,101833.84
2023-08-10T21:36:34.489Z,101825.88
2023-08-10T21:39:01.528Z,101836.50
2023-08-10T21:41:28.434Z,101837.75
2023-08-10T21:43:55.567Z,101844.22
2023-08-10T21:46:22.403Z,101833.16
2023-08-10T21:48:49.160Z,101830.69
2023-08-10T21:51:15.818Z,101833.16
2023-08-10T21:53:42.491Z,101824.03
2023-08-10T21:56:09.965Z,101828.50
2023-08-10T21:58:36.822Z,101834.44
2023-08-10T22:01:03.866Z,101827.97
2023-08-10T22:03:30.948Z,101828.84
2023-08-10T22:05:57.723Z,101842.25
2023-08-10T22:08:24.488Z,101836.34
2023-08-10T22:10:51.288Z,101837.50
2023-08-10T22:13:18.162Z,101837.00
2023-08-10T22:15:45.187Z,101832.47
2023-08-10T22:18:12.232Z,101822.91
2023-08-10T22:20:39.349Z,101826.19
2023-08-10T22:23:06.292Z,101820.13
2023-08-10T22:25:33.333Z,101828.97
2023-08-10T22:28:01.032Z,101819.44
2023-08-10T22:30:28.042Z,101823.38
2023-08-10T22:32:55.438Z,101822.69
2023-08-10T22:35:22.305Z,101828.00
2023-08-10T22:37:49.869Z,101825.34
2023-08-10T22:40:16.831Z,101824.53
2023-08-10T22:42:43.868Z,101822.69
2023-08-10T22:45:10.854Z,101828.47
2023-08-10T22:47:37.866Z,101827.53
2023-08-10T22:50:04.543Z,101829.63
2023-08-10T22:52:31.007Z,101830.88
2023-08-10T22:54:57.253Z,101832.03
2023-08-10T22:57:23.569Z,101825.88
2023-08-10T22:59:49.885Z,101834.91
2023-08-10T23:02:16.220Z,101840.31
2023-08-10T23:04:42.527Z,101839.38
2023-08-10T23:07:08.766Z,101836.59
2023-08-10T23:09:35.074Z,101831.41
2023-08-10T23:12:01.355Z,101834.22
2023-08-10T23:14:27.643Z,101835.00
2023-08-10T23:16:53.896Z,101841.28
2023-08-10T23:19:20.155Z,101847.53
2023-08-10T23:21:46.440Z,101838.91
2023-08-10T23:24:12.760Z,101834.56
2023-08-10T23:26:39.057Z,101832.19
2023-08-10T23:29:05.341Z,101833.22
2023-08-10T23:31:31.777Z,101830.84
2023-08-10T23:33:58.102Z,101829.56
2023-08-10T23:36:24.329Z,101838.31
2023-08-10T23:38:50.685Z,101828.72
2023-08-10T23:41:16.995Z,101827.22
2023-08-10T23:43:43.348Z,101823.91
2023-08-10T23:46:09.629Z,101829.97
2023-08-10T23:48:35.910Z,101829.75
2023-08-10T23:51:02.248Z,101813.94
2023-08-10T23:53:28.500Z,101807.88
2023-08-10T23:55:54.997Z,101816.69
2023-08-10T23:58:37.642Z,101823.03
